KSVC  Grant County Airport

Add Bookmark

Silver City, New Mexico, United States

Status Useage IATA
Operational Public SVC
Latitude Longitude
32° 38' 11" N 108° 9' 22" W
32.636547 -108.156385
Local (DST -6) UTC (GMT -7)
Sep 1, 2014 05:25 Sep 1, 2014 23:25
Sunrise-Sunset Local UTC
Begin Civil Twilight 06:21 12:21
Sunrise 06:46 12:46
Sunset 07:37 01:37
End Civil Twilight 08:02 02:02

Current Weather

METAR Observed VFR
KSVC 012255Z AUTO 28007G17KT 10SM CLR 32/M03 A3009 Mon, Sep 1, 2014 @ 22:55 UTC
(30 Minutes ago)
Visual Flight Rules
Wind Visibility Clouds Conditions
280° at 7 knots (8 mph)
Gusting to 17 knots (20 mph)
10 statute miles
  • Clear skies
  • No significant weather
Temperatures Readings Precipitation
Current Temp 32°C (90°F)
Dewpoint -3°C (27°F)
Humidity 10%
Altimeter 30.09"Hg
Sea Level Pressure 1019mb
Field Elevation 5443.01'
None Recorded

Additional weather within a 50nm radius of KSVC

Map ICAO Location
KDMN 31.5nm S (135°)
KLSB 32.6nm S (236°)

24 Hour Weather History

Loading
-

24 Hour Weather Graphs

Loading
-

CheckWX.com is intended as a tool to help pilots better visualize weather data. It is not intended as a substitute for an official weather briefing obtained from a Flight Service Station. CheckWX.com does not meet the FAA requirements for an official pre-flight weather briefing. Therefore, it's important that pilots still call and obtain an official FSS pre-flight weather briefing.